createdAt,value
2018-10-05T00:00:01.497Z,7.60
2018-10-05T00:02:28.967Z,6.53
2018-10-05T00:04:57.379Z,8.05
2018-10-05T00:07:30.242Z,7.90
2018-10-05T00:09:58.397Z,7.95
2018-10-05T00:12:26.740Z,8.30
2018-10-05T00:14:54.247Z,8.35
2018-10-05T00:17:23.436Z,8.78
2018-10-05T00:19:51.894Z,6.90
2018-10-05T00:24:51.823Z,8.25
2018-10-05T00:27:19.684Z,8.50
2018-10-05T00:29:47.399Z,8.28
2018-10-05T00:32:14.846Z,7.40
2018-10-05T00:34:43.336Z,6.90
2018-10-05T00:37:11.380Z,7.37
2018-10-05T00:39:38.828Z,7.75
2018-10-05T00:42:06.453Z,8.83
2018-10-05T00:44:38.336Z,9.05
2018-10-05T00:47:05.895Z,8.50
2018-10-05T00:49:34.865Z,8.03
2018-10-05T00:52:02.589Z,9.15
2018-10-05T00:54:30.547Z,8.35
2018-10-05T00:56:57.962Z,7.95
2018-10-05T00:59:29.883Z,7.35
2018-10-05T01:01:57.595Z,7.85
2018-10-05T01:04:25.030Z,7.92
2018-10-05T01:06:52.685Z,8.05
2018-10-05T01:09:21.091Z,7.60
2018-10-05T01:11:48.516Z,7.45
2018-10-05T01:14:17.144Z,6.65
2018-10-05T01:16:44.525Z,10.13
2018-10-05T01:19:16.495Z,8.13
2018-10-05T01:21:44.461Z,11.22
2018-10-05T01:24:11.994Z,10.70
2018-10-05T01:26:39.788Z,10.82
2018-10-05T01:31:39.908Z,9.08
2018-10-05T01:34:07.371Z,8.33
2018-10-05T01:36:34.929Z,8.08
2018-10-05T01:39:04.368Z,7.62
2018-10-05T01:41:32.930Z,7.90
2018-10-05T01:44:00.314Z,8.68
2018-10-05T01:46:28.006Z,8.40
2018-10-05T01:48:55.647Z,7.30
2018-10-05T01:51:28.160Z,7.20
2018-10-05T01:54:01.446Z,7.95
2018-10-05T01:56:35.729Z,9.48
2018-10-05T01:59:04.025Z,8.40
2018-10-05T02:01:35.355Z,8.30
2018-10-05T02:04:03.189Z,8.65
2018-10-05T02:06:31.322Z,8.98
2018-10-05T02:11:34.662Z,7.37
2018-10-05T02:14:06.593Z,7.60
2018-10-05T02:16:34.312Z,8.65
2018-10-05T02:19:07.317Z,8.65
2018-10-05T02:21:35.323Z,7.65
2018-10-05T02:24:02.847Z,9.60
2018-10-05T02:26:35.367Z,9.10
2018-10-05T02:29:04.258Z,12.90
2018-10-05T02:31:34.407Z,18.05
2018-10-05T02:34:02.029Z,9.95
2018-10-05T02:36:29.461Z,10.05
2018-10-05T02:38:57.668Z,11.83
2018-10-05T02:41:25.488Z,9.85
2018-10-05T02:43:53.391Z,11.28
2018-10-05T02:46:21.905Z,14.60
2018-10-05T02:48:54.464Z,12.55
2018-10-05T02:51:22.111Z,10.65
2018-10-05T02:53:54.521Z,10.70
2018-10-05T02:56:22.035Z,9.15
2018-10-05T02:58:50.317Z,10.60
2018-10-05T03:01:23.179Z,10.55
2018-10-05T03:03:50.744Z,9.20
2018-10-05T03:06:18.279Z,8.48
2018-10-05T03:08:46.039Z,8.33
2018-10-05T03:11:14.026Z,6.90
2018-10-05T03:13:42.712Z,7.30
2018-10-05T03:16:14.802Z,6.95
2018-10-05T03:18:42.175Z,9.23
2018-10-05T03:21:14.517Z,7.42
2018-10-05T03:23:42.839Z,6.55
2018-10-05T03:26:15.722Z,7.58
2018-10-05T03:28:47.958Z,6.87
2018-10-05T03:31:15.453Z,8.08
2018-10-05T03:33:46.994Z,7.12
2018-10-05T03:36:14.826Z,7.33
2018-10-05T03:38:42.330Z,6.75
2018-10-05T03:41:09.750Z,8.18
2018-10-05T03:43:38.212Z,7.40
2018-10-05T03:46:07.767Z,7.83
2018-10-05T03:48:35.240Z,7.42
2018-10-05T03:51:03.118Z,6.62
2018-10-05T03:53:30.615Z,7.58
2018-10-05T03:55:58.325Z,6.60
2018-10-05T03:58:35.406Z,7.28
2018-10-05T04:03:31.279Z,7.30
2018-10-05T04:06:00.811Z,6.53
2018-10-05T04:08:36.583Z,7.65
2018-10-05T04:11:04.590Z,7.25
2018-10-05T04:13:31.899Z,6.90
2018-10-05T04:18:30.222Z,7.67
2018-10-05T04:30:37.630Z,6.62
2018-10-05T04:33:17.629Z,7.40
2018-10-05T04:35:45.064Z,7.85
2018-10-05T04:38:15.000Z,8.60
2018-10-05T04:40:46.550Z,7.55
2018-10-05T04:43:14.277Z,7.62
2018-10-05T04:45:41.696Z,7.60
2018-10-05T04:48:10.073Z,7.85
2018-10-05T04:50:39.405Z,7.30
2018-10-05T04:53:07.460Z,6.80
2018-10-05T04:55:35.794Z,7.15
2018-10-05T04:58:04.099Z,7.78
2018-10-05T05:02:59.651Z,5.70
2018-10-05T05:05:27.082Z,6.00
2018-10-05T05:07:54.488Z,6.78
2018-10-05T05:10:21.732Z,6.60
2018-10-05T05:12:49.011Z,6.87
2018-10-05T05:15:16.447Z,6.58
2018-10-05T05:17:43.730Z,7.80
2018-10-05T05:20:11.079Z,7.20
2018-10-05T05:22:38.371Z,7.17
2018-10-05T05:25:05.687Z,7.15
2018-10-05T05:27:33.039Z,6.58
2018-10-05T05:30:00.343Z,7.25
2018-10-05T05:32:27.650Z,6.53
2018-10-05T05:34:54.976Z,6.35
2018-10-05T05:37:22.279Z,7.10
2018-10-05T05:39:50.337Z,6.97
2018-10-05T05:42:17.645Z,6.62
2018-10-05T05:44:44.940Z,6.67
2018-10-05T05:47:12.227Z,7.08
2018-10-05T05:49:39.567Z,6.85
2018-10-05T05:52:06.904Z,7.25
2018-10-05T05:54:34.720Z,6.78
2018-10-05T05:57:01.954Z,7.70
2018-10-05T05:59:30.351Z,8.28
2018-10-05T06:01:57.688Z,8.48
2018-10-05T06:04:25.721Z,7.80
2018-10-05T06:06:53.101Z,7.45
2018-10-05T06:09:20.382Z,8.03
2018-10-05T06:11:47.700Z,7.10
2018-10-05T06:14:14.989Z,6.95
2018-10-05T06:16:42.295Z,6.78
2018-10-05T06:19:09.582Z,8.20
2018-10-05T06:21:36.910Z,7.50
2018-10-05T06:24:04.176Z,7.45
2018-10-05T06:26:31.450Z,7.90
2018-10-05T06:28:58.718Z,6.92
2018-10-05T06:31:26.203Z,7.47
2018-10-05T06:33:53.486Z,8.05
2018-10-05T06:36:20.875Z,8.00
2018-10-05T06:38:48.215Z,9.15
2018-10-05T06:41:15.603Z,8.73
2018-10-05T06:43:42.922Z,8.13
2018-10-05T06:46:10.388Z,7.42
2018-10-05T06:48:38.173Z,6.78
2018-10-05T06:51:05.538Z,7.80
2018-10-05T06:53:32.972Z,7.28
2018-10-05T06:56:00.274Z,8.20
2018-10-05T06:58:27.665Z,7.67
2018-10-05T07:00:54.986Z,7.53
2018-10-05T07:03:22.303Z,8.20
2018-10-05T07:05:50.162Z,6.45
2018-10-05T07:08:17.480Z,6.72
2018-10-05T07:10:44.795Z,6.47
2018-10-05T07:13:12.100Z,7.60
2018-10-05T07:15:39.775Z,7.15
2018-10-05T07:18:07.511Z,6.45
2018-10-05T07:20:34.790Z,7.72
2018-10-05T07:23:02.154Z,7.78
2018-10-05T07:25:29.464Z,5.80
2018-10-05T07:27:56.900Z,7.25
2018-10-05T07:30:24.233Z,7.75
2018-10-05T07:32:51.592Z,8.10
2018-10-05T07:35:18.888Z,7.55
2018-10-05T07:37:46.193Z,7.05
2018-10-05T07:40:13.493Z,6.72
2018-10-05T07:42:41.154Z,6.53
2018-10-05T07:45:08.469Z,6.70
2018-10-05T07:47:35.806Z,6.53
2018-10-05T07:50:03.254Z,6.20
2018-10-05T07:52:30.539Z,5.95
2018-10-05T07:54:57.915Z,6.35
2018-10-05T07:57:25.292Z,6.87
2018-10-05T07:59:52.602Z,6.40
2018-10-05T08:02:19.903Z,6.45
2018-10-05T08:04:47.849Z,5.62
2018-10-05T08:07:15.252Z,6.03
2018-10-05T08:09:42.724Z,5.75
2018-10-05T08:12:09.943Z,5.85
2018-10-05T08:14:37.276Z,6.10
2018-10-05T08:17:04.837Z,6.40
2018-10-05T08:19:32.156Z,5.97
2018-10-05T08:21:59.415Z,5.50
2018-10-05T08:24:26.735Z,5.78
2018-10-05T08:26:54.112Z,5.53
2018-10-05T08:29:21.464Z,6.17
2018-10-05T08:31:48.817Z,5.67
2018-10-05T08:34:16.175Z,5.45
2018-10-05T08:36:43.412Z,5.67
2018-10-05T08:39:11.940Z,6.17
2018-10-05T08:41:39.271Z,6.75
2018-10-05T08:44:06.545Z,6.37
2018-10-05T08:46:33.980Z,5.70
2018-10-05T08:49:01.266Z,6.70
2018-10-05T08:51:29.350Z,6.17
2018-10-05T08:53:56.751Z,7.10
2018-10-05T08:56:24.434Z,6.50
2018-10-05T08:58:51.722Z,6.03
2018-10-05T09:01:19.019Z,6.60
2018-10-05T09:03:46.474Z,6.50
2018-10-05T09:06:13.768Z,7.00
2018-10-05T09:08:41.055Z,6.28
2018-10-05T09:11:08.364Z,5.53
2018-10-05T09:13:35.666Z,5.72
2018-10-05T09:16:03.005Z,6.12
2018-10-05T09:18:30.307Z,6.28
2018-10-05T09:20:57.608Z,6.12
2018-10-05T09:23:24.866Z,6.70
2018-10-05T09:25:52.289Z,6.30
2018-10-05T09:28:19.600Z,5.62
2018-10-05T09:30:46.971Z,5.70
2018-10-05T09:33:14.207Z,6.15
2018-10-05T09:35:41.724Z,6.35
2018-10-05T09:38:09.119Z,6.33
2018-10-05T09:40:37.206Z,4.75
2018-10-05T09:43:04.539Z,5.25
2018-10-05T09:45:32.152Z,4.22
2018-10-05T09:47:59.490Z,5.78
2018-10-05T09:50:26.831Z,5.20
2018-10-05T09:52:54.143Z,4.65
2018-10-05T09:55:21.467Z,5.50
2018-10-05T09:57:49.082Z,4.97
2018-10-05T10:00:22.464Z,5.30
2018-10-05T10:02:55.392Z,5.08
2018-10-05T10:05:23.880Z,5.03
2018-10-05T10:07:52.366Z,4.75
2018-10-05T10:10:24.336Z,5.17
2018-10-05T10:12:51.705Z,4.60
2018-10-05T10:15:19.540Z,4.53
2018-10-05T10:17:46.921Z,4.72
2018-10-05T10:20:18.811Z,4.00
2018-10-05T10:22:46.234Z,3.92
2018-10-05T10:25:13.631Z,3.90
2018-10-05T10:27:45.564Z,3.87
2018-10-05T10:30:14.516Z,3.98
2018-10-05T10:32:43.541Z,4.22
2018-10-05T10:35:11.042Z,3.83
2018-10-05T10:37:43.242Z,3.95
2018-10-05T10:40:11.804Z,3.98
2018-10-05T10:42:39.415Z,3.80
2018-10-05T10:45:07.503Z,3.72
2018-10-05T10:47:35.695Z,3.70
2018-10-05T10:50:08.260Z,3.40
2018-10-05T10:52:37.006Z,3.70
2018-10-05T10:55:04.555Z,3.62
2018-10-05T10:57:32.484Z,3.83
2018-10-05T11:00:00.285Z,3.10
2018-10-05T11:02:32.700Z,4.20
2018-10-05T11:07:28.033Z,3.50
2018-10-05T11:12:23.722Z,3.62
2018-10-05T11:14:51.716Z,3.45
2018-10-05T11:17:19.896Z,4.10
2018-10-05T11:19:47.885Z,2.70
2018-10-05T11:22:20.125Z,4.77
2018-10-05T11:24:47.459Z,3.20
2018-10-05T11:27:15.511Z,4.53
2018-10-05T11:29:42.934Z,3.47
2018-10-05T11:32:10.568Z,3.30
2018-10-05T11:34:38.988Z,3.63
2018-10-05T11:37:07.063Z,2.80
2018-10-05T11:42:11.831Z,2.80
2018-10-05T11:44:39.770Z,2.77
2018-10-05T11:47:07.196Z,3.00
2018-10-05T11:49:35.520Z,3.20
2018-10-05T11:52:03.506Z,3.03
2018-10-05T11:54:31.643Z,3.20
2018-10-05T11:56:59.117Z,3.20
2018-10-05T11:59:26.873Z,3.43
2018-10-05T12:01:54.242Z,2.60
2018-10-05T12:04:21.562Z,3.87
2018-10-05T12:06:49.019Z,3.07
2018-10-05T12:09:17.280Z,3.00
2018-10-05T12:11:44.600Z,3.30
2018-10-05T12:14:12.042Z,2.97
2018-10-05T12:16:39.353Z,2.70
2018-10-05T12:19:06.663Z,3.10
2018-10-05T12:21:34.095Z,2.23
2018-10-05T12:24:01.556Z,2.80
2018-10-05T12:26:28.923Z,2.90
2018-10-05T12:28:56.266Z,3.50
2018-10-05T12:31:23.813Z,3.07
2018-10-05T12:33:51.333Z,3.10
2018-10-05T12:36:18.619Z,2.57
2018-10-05T12:38:45.899Z,2.67
2018-10-05T12:41:13.256Z,2.50
2018-10-05T12:43:40.675Z,2.87
2018-10-05T12:46:08.075Z,2.67
2018-10-05T12:48:35.357Z,3.17
2018-10-05T12:51:02.760Z,2.43
2018-10-05T12:53:30.114Z,2.60
2018-10-05T12:58:30.164Z,2.70
2018-10-05T13:00:57.592Z,2.77
2018-10-05T13:03:24.962Z,3.90
2018-10-05T13:05:52.299Z,2.90
2018-10-05T13:08:19.642Z,2.67
2018-10-05T13:10:47.146Z,2.30
2018-10-05T13:13:14.467Z,3.00
2018-10-05T13:15:41.820Z,2.50
2018-10-05T13:18:09.352Z,2.57
2018-10-05T13:20:36.707Z,3.40
2018-10-05T13:23:04.087Z,2.00
2018-10-05T13:25:31.500Z,2.10
2018-10-05T13:27:58.859Z,2.93
2018-10-05T13:30:26.216Z,1.90
2018-10-05T13:32:53.597Z,2.20
2018-10-05T13:35:20.946Z,2.40
2018-10-05T13:37:48.354Z,2.97
2018-10-05T13:40:15.709Z,2.00
2018-10-05T13:42:43.647Z,2.37
2018-10-05T13:45:11.251Z,2.17
2018-10-05T13:47:38.619Z,2.93
2018-10-05T13:50:07.551Z,2.20
2018-10-05T13:52:35.373Z,2.67
2018-10-05T13:55:02.856Z,2.07
2018-10-05T13:57:30.196Z,2.50
2018-10-05T13:59:57.565Z,2.00
2018-10-05T14:02:24.893Z,1.97
2018-10-05T14:04:52.257Z,2.17
2018-10-05T14:07:19.644Z,2.67
2018-10-05T14:09:46.950Z,2.60
2018-10-05T14:12:14.333Z,2.20
2018-10-05T14:14:41.678Z,3.00
2018-10-05T14:17:08.993Z,1.97
2018-10-05T14:19:36.287Z,2.00
2018-10-05T14:22:03.650Z,2.03
2018-10-05T14:24:30.947Z,3.23
2018-10-05T14:26:58.328Z,2.03
2018-10-05T14:29:25.657Z,2.00
2018-10-05T14:31:53.013Z,2.10
2018-10-05T14:34:20.361Z,2.30
2018-10-05T14:36:47.718Z,2.20
2018-10-05T14:39:15.066Z,2.23
2018-10-05T14:41:42.429Z,2.50
2018-10-05T14:44:09.775Z,1.87
2018-10-05T14:46:37.116Z,2.90
2018-10-05T14:49:04.604Z,2.03
2018-10-05T14:51:31.943Z,1.83
2018-10-05T14:53:59.357Z,2.20
2018-10-05T14:56:26.723Z,2.40
2018-10-05T14:58:54.073Z,2.00
2018-10-05T15:01:21.484Z,2.80
2018-10-05T15:03:48.812Z,2.30
2018-10-05T15:06:16.209Z,2.10
2018-10-05T15:08:43.725Z,2.27
2018-10-05T15:11:11.192Z,2.70
2018-10-05T15:13:38.595Z,2.20
2018-10-05T15:16:06.539Z,2.07
2018-10-05T15:18:33.981Z,2.40
2018-10-05T15:21:01.335Z,1.90
2018-10-05T15:23:28.663Z,2.50
2018-10-05T15:25:56.081Z,3.17
2018-10-05T15:28:23.410Z,2.80
2018-10-05T15:30:50.766Z,2.10
2018-10-05T15:33:18.210Z,1.83
2018-10-05T15:35:45.556Z,2.07
2018-10-05T15:38:12.950Z,2.27
2018-10-05T15:40:40.327Z,2.20
2018-10-05T15:43:07.696Z,2.07
2018-10-05T15:45:35.068Z,2.07
2018-10-05T15:48:02.548Z,2.03
2018-10-05T15:50:30.028Z,2.50
2018-10-05T15:52:57.586Z,2.93
2018-10-05T15:55:24.895Z,2.50
2018-10-05T15:57:52.291Z,2.23
2018-10-05T16:00:19.656Z,2.47
2018-10-05T16:02:47.184Z,2.30
2018-10-05T16:05:14.602Z,2.80
2018-10-05T16:07:42.127Z,2.23
2018-10-05T16:10:09.455Z,2.70
2018-10-05T16:12:36.940Z,2.30
2018-10-05T16:15:04.264Z,2.63
2018-10-05T16:17:31.805Z,2.10
2018-10-05T16:19:59.613Z,2.33
2018-10-05T16:22:26.966Z,3.00
2018-10-05T16:24:54.400Z,3.10
2018-10-05T16:27:21.892Z,2.92
2018-10-05T16:29:49.362Z,4.00
2018-10-05T16:32:16.806Z,4.58
2018-10-05T16:34:44.556Z,4.25
2018-10-05T16:37:12.225Z,5.12
2018-10-05T16:39:39.924Z,6.00
2018-10-05T16:42:07.338Z,4.70
2018-10-05T16:44:34.705Z,4.22
2018-10-05T16:47:02.069Z,3.83
2018-10-05T16:49:29.722Z,4.45
2018-10-05T16:51:57.185Z,5.67
2018-10-05T16:54:25.292Z,5.83
2018-10-05T16:56:52.830Z,5.25
2018-10-05T16:59:20.215Z,5.28
2018-10-05T17:01:47.819Z,5.95
2018-10-05T17:04:19.684Z,4.92
2018-10-05T17:06:47.146Z,5.10
2018-10-05T17:09:15.440Z,4.72
2018-10-05T17:11:45.002Z,5.10
2018-10-05T17:14:23.004Z,5.10
2018-10-05T17:16:51.402Z,4.12
2018-10-05T17:19:18.899Z,4.22
2018-10-05T17:21:50.756Z,4.47
2018-10-05T17:24:18.270Z,4.95
2018-10-05T17:26:46.970Z,3.60
2018-10-05T17:29:14.433Z,4.60
2018-10-05T17:31:46.695Z,4.08
2018-10-05T17:34:18.889Z,4.80
2018-10-05T17:36:46.436Z,4.67
2018-10-05T17:39:13.828Z,4.42
2018-10-05T17:41:42.315Z,3.87
2018-10-05T17:44:10.327Z,4.10
2018-10-05T17:46:38.782Z,3.80
2018-10-05T17:49:06.465Z,4.70
2018-10-05T17:51:36.037Z,4.20
2018-10-05T17:54:03.522Z,3.65
2018-10-05T17:56:31.043Z,4.45
2018-10-05T18:01:25.475Z,3.87
2018-10-05T18:03:57.471Z,3.80
2018-10-05T18:06:25.044Z,3.85
2018-10-05T18:08:52.660Z,3.20
2018-10-05T18:11:20.689Z,3.30
2018-10-05T18:13:52.683Z,4.22
2018-10-05T18:16:21.154Z,3.00
2018-10-05T18:18:59.242Z,3.30
2018-10-05T18:21:26.897Z,2.80
2018-10-05T18:23:54.906Z,3.08
2018-10-05T18:26:23.035Z,3.08
2018-10-05T18:28:54.574Z,3.95
2018-10-05T18:31:22.137Z,3.83
2018-10-05T18:33:49.681Z,3.50
2018-10-05T18:36:17.730Z,3.17
2018-10-05T18:38:45.854Z,3.85
2018-10-05T18:41:17.683Z,3.40
2018-10-05T18:43:49.703Z,2.35
2018-10-05T18:46:18.476Z,3.22
2018-10-05T18:48:46.196Z,2.30
2018-10-05T18:51:19.441Z,3.33
2018-10-05T18:53:47.538Z,2.50
2018-10-05T18:56:23.298Z,3.25
2018-10-05T18:58:50.873Z,2.60
2018-10-05T19:01:19.200Z,2.90
2018-10-05T19:03:47.094Z,2.47
2018-10-05T19:06:15.612Z,2.87
2018-10-05T19:08:43.335Z,2.77
2018-10-05T19:11:10.811Z,2.15
2018-10-05T19:13:38.432Z,2.33
2018-10-05T19:16:05.989Z,3.05
2018-10-05T19:18:38.149Z,2.87
2018-10-05T19:21:06.034Z,2.40
2018-10-05T19:23:33.831Z,2.77
2018-10-05T19:26:01.348Z,2.92
2018-10-05T19:28:29.663Z,2.70
2018-10-05T19:30:57.154Z,3.15
2018-10-05T19:33:29.158Z,3.17
2018-10-05T19:35:57.353Z,2.55
2018-10-05T19:38:24.886Z,2.75
2018-10-05T19:40:57.376Z,2.70
2018-10-05T19:43:24.779Z,2.55
2018-10-05T19:45:52.285Z,2.77
2018-10-05T19:48:20.193Z,2.65
2018-10-05T19:50:51.668Z,2.58
2018-10-05T19:53:20.183Z,2.80
2018-10-05T19:55:47.597Z,2.72
2018-10-05T19:58:19.244Z,2.67
2018-10-05T20:00:50.893Z,2.55
2018-10-05T20:03:18.960Z,2.70
2018-10-05T20:05:47.101Z,3.00
2018-10-05T20:10:46.627Z,2.70
2018-10-05T20:13:14.287Z,2.95
2018-10-05T20:15:45.717Z,3.30
2018-10-05T20:18:14.747Z,5.83
2018-10-05T20:20:43.962Z,8.68
2018-10-05T20:25:39.230Z,7.40
2018-10-05T20:28:07.648Z,7.53
2018-10-05T20:30:40.854Z,7.50
2018-10-05T20:33:09.870Z,5.30
2018-10-05T20:35:41.351Z,5.53
2018-10-05T20:38:08.955Z,5.22
2018-10-05T20:40:36.432Z,4.70
2018-10-05T20:43:04.014Z,4.60
2018-10-05T20:45:37.714Z,4.00
2018-10-05T20:48:05.303Z,2.77
2018-10-05T20:50:33.591Z,3.40
2018-10-05T20:53:02.605Z,2.20
2018-10-05T20:57:59.287Z,2.95
2018-10-05T21:00:27.279Z,3.15
2018-10-05T21:02:54.797Z,2.85
2018-10-05T21:05:23.489Z,3.08
2018-10-05T21:07:51.619Z,3.10
2018-10-05T21:10:19.109Z,2.67
2018-10-05T21:12:47.220Z,2.77
2018-10-05T21:15:17.545Z,3.75
2018-10-05T21:17:48.998Z,3.12
2018-10-05T21:20:16.460Z,3.20
2018-10-05T21:22:43.786Z,3.08
2018-10-05T21:25:11.698Z,3.40
2018-10-05T21:27:39.135Z,3.72
2018-10-05T21:30:06.690Z,3.50
2018-10-05T21:32:39.635Z,3.45
2018-10-05T21:35:07.472Z,3.67
2018-10-05T21:37:40.360Z,3.50
2018-10-05T21:40:07.855Z,3.50
2018-10-05T21:42:40.475Z,4.03
2018-10-05T21:45:12.731Z,3.80
2018-10-05T21:47:40.862Z,3.72
2018-10-05T21:50:08.269Z,3.50
2018-10-05T21:52:40.103Z,3.47
2018-10-05T21:55:12.427Z,3.40
2018-10-05T21:57:40.280Z,3.60
2018-10-05T22:00:08.587Z,3.08
2018-10-05T22:02:36.571Z,3.70
2018-10-05T22:05:05.116Z,3.62
2018-10-05T22:10:00.505Z,4.17
2018-10-05T22:12:28.471Z,3.98
2018-10-05T22:17:23.095Z,3.55
2018-10-05T22:19:50.517Z,3.50
2018-10-05T22:22:18.664Z,4.45
2018-10-05T22:24:48.794Z,3.92
2018-10-05T22:27:16.161Z,4.10
2018-10-05T22:29:44.259Z,4.28
2018-10-05T22:32:12.648Z,4.10
2018-10-05T22:34:40.158Z,4.15
2018-10-05T22:37:12.574Z,4.45
2018-10-05T22:39:40.246Z,4.03
2018-10-05T22:44:35.547Z,4.30
2018-10-05T22:47:03.175Z,4.20
2018-10-05T22:49:35.239Z,5.12
2018-10-05T22:52:02.673Z,5.92
2018-10-05T22:54:33.546Z,5.62
2018-10-05T22:59:31.393Z,6.17
2018-10-05T23:02:03.487Z,8.20
2018-10-05T23:04:36.524Z,6.50
2018-10-05T23:07:06.261Z,5.87
2018-10-05T23:09:33.717Z,6.00
2018-10-05T23:12:02.373Z,5.80
2018-10-05T23:14:30.059Z,5.45
2018-10-05T23:16:57.617Z,6.15
2018-10-05T23:19:25.058Z,6.15
2018-10-05T23:21:54.142Z,6.50
2018-10-05T23:24:21.771Z,5.35
2018-10-05T23:26:49.906Z,5.75
2018-10-05T23:29:18.639Z,5.85
2018-10-05T23:34:14.479Z,6.20
2018-10-05T23:36:43.368Z,6.03
2018-10-05T23:39:13.458Z,5.53
2018-10-05T23:41:40.952Z,7.33
2018-10-05T23:44:12.971Z,5.87
2018-10-05T23:46:41.379Z,5.80
2018-10-05T23:49:10.190Z,6.10
2018-10-05T23:51:37.667Z,6.50
2018-10-05T23:54:05.141Z,5.90
2018-10-05T23:56:32.714Z,5.95
2018-10-05T23:59:01.611Z,6.12
